sensor_id;sensor_type;location;lat;lon;timestamp;P1;durP1;ratioP1;P2;durP2;ratioP2
18162;SDS011;9206;50.994;4.538;2023-02-17T00:01:23;5.90;;;5.60;;
18162;SDS011;9206;50.994;4.538;2023-02-17T00:04:15;6.30;;;5.83;;
18162;SDS011;9206;50.994;4.538;2023-02-17T00:07:02;6.03;;;5.73;;
18162;SDS011;9206;50.994;4.538;2023-02-17T00:09:50;6.67;;;6.17;;
18162;SDS011;9206;50.994;4.538;2023-02-17T00:12:44;5.37;;;4.97;;
18162;SDS011;9206;50.994;4.538;2023-02-17T00:15:33;5.70;;;5.30;;
18162;SDS011;9206;50.994;4.538;2023-02-17T00:18:20;6.10;;;5.80;;
18162;SDS011;9206;50.994;4.538;2023-02-17T00:24:04;5.77;;;5.40;;
18162;SDS011;9206;50.994;4.538;2023-02-17T00:26:58;5.20;;;4.90;;
18162;SDS011;9206;50.994;4.538;2023-02-17T00:29:51;5.27;;;4.97;;
18162;SDS011;9206;50.994;4.538;2023-02-17T00:32:45;5.60;;;5.30;;
18162;SDS011;9206;50.994;4.538;2023-02-17T00:41:37;5.00;;;4.70;;
18162;SDS011;9206;50.994;4.538;2023-02-17T00:44:28;5.20;;;4.80;;
18162;SDS011;9206;50.994;4.538;2023-02-17T00:47:21;4.67;;;4.47;;
18162;SDS011;9206;50.994;4.538;2023-02-17T00:50:16;4.20;;;3.90;;
18162;SDS011;9206;50.994;4.538;2023-02-17T00:53:03;4.63;;;4.27;;
18162;SDS011;9206;50.994;4.538;2023-02-17T00:55:52;4.30;;;4.10;;
18162;SDS011;9206;50.994;4.538;2023-02-17T00:58:42;4.67;;;4.40;;
18162;SDS011;9206;50.994;4.538;2023-02-17T01:01:36;4.93;;;4.63;;
18162;SDS011;9206;50.994;4.538;2023-02-17T01:04:30;5.10;;;4.77;;
18162;SDS011;9206;50.994;4.538;2023-02-17T01:07:17;5.07;;;4.67;;
18162;SDS011;9206;50.994;4.538;2023-02-17T01:10:08;5.30;;;4.97;;
18162;SDS011;9206;50.994;4.538;2023-02-17T01:13:01;4.63;;;4.43;;
18162;SDS011;9206;50.994;4.538;2023-02-17T01:15:54;4.40;;;4.20;;
18162;SDS011;9206;50.994;4.538;2023-02-17T01:24:23;4.50;;;4.20;;
18162;SDS011;9206;50.994;4.538;2023-02-17T01:27:11;4.10;;;3.80;;
18162;SDS011;9206;50.994;4.538;2023-02-17T01:30:02;4.17;;;3.87;;
18162;SDS011;9206;50.994;4.538;2023-02-17T01:32:55;3.87;;;3.67;;
18162;SDS011;9206;50.994;4.538;2023-02-17T01:38:39;3.73;;;3.53;;
18162;SDS011;9206;50.994;4.538;2023-02-17T01:41:32;4.07;;;3.77;;
18162;SDS011;9206;50.994;4.538;2023-02-17T01:44:21;5.30;;;3.63;;
18162;SDS011;9206;50.994;4.538;2023-02-17T01:47:15;3.40;;;3.20;;
18162;SDS011;9206;50.994;4.538;2023-02-17T01:50:04;3.93;;;3.67;;
18162;SDS011;9206;50.994;4.538;2023-02-17T01:52:54;5.20;;;3.93;;
18162;SDS011;9206;50.994;4.538;2023-02-17T01:55:52;3.50;;;3.30;;
18162;SDS011;9206;50.994;4.538;2023-02-17T01:58:43;4.00;;;3.70;;
18162;SDS011;9206;50.994;4.538;2023-02-17T02:01:36;4.37;;;3.97;;
18162;SDS011;9206;50.994;4.538;2023-02-17T02:04:26;3.90;;;3.70;;
18162;SDS011;9206;50.994;4.538;2023-02-17T02:07:22;5.80;;;3.10;;
18162;SDS011;9206;50.994;4.538;2023-02-17T02:10:14;2.80;;;2.70;;
18162;SDS011;9206;50.994;4.538;2023-02-17T02:13:03;2.80;;;2.60;;
18162;SDS011;9206;50.994;4.538;2023-02-17T02:15:59;2.40;;;2.30;;
18162;SDS011;9206;50.994;4.538;2023-02-17T02:19:03;2.60;;;2.40;;
18162;SDS011;9206;50.994;4.538;2023-02-17T02:22:21;3.00;;;2.70;;
18162;SDS011;9206;50.994;4.538;2023-02-17T02:25:34;2.77;;;2.57;;
18162;SDS011;9206;50.994;4.538;2023-02-17T02:28:36;3.20;;;2.60;;
18162;SDS011;9206;50.994;4.538;2023-02-17T02:31:41;3.27;;;2.90;;
18162;SDS011;9206;50.994;4.538;2023-02-17T02:37:29;2.93;;;2.73;;
18162;SDS011;9206;50.994;4.538;2023-02-17T02:40:23;2.83;;;2.63;;
18162;SDS011;9206;50.994;4.538;2023-02-17T02:43:20;3.10;;;3.00;;
18162;SDS011;9206;50.994;4.538;2023-02-17T02:46:12;4.00;;;2.97;;
18162;SDS011;9206;50.994;4.538;2023-02-17T02:49:05;3.23;;;3.03;;
18162;SDS011;9206;50.994;4.538;2023-02-17T02:54:49;3.73;;;3.50;;
18162;SDS011;9206;50.994;4.538;2023-02-17T02:57:47;3.93;;;3.63;;
18162;SDS011;9206;50.994;4.538;2023-02-17T03:00:48;4.60;;;3.63;;
18162;SDS011;9206;50.994;4.538;2023-02-17T03:03:40;4.50;;;4.03;;
18162;SDS011;9206;50.994;4.538;2023-02-17T03:06:42;5.00;;;4.50;;
18162;SDS011;9206;50.994;4.538;2023-02-17T03:09:36;6.60;;;6.20;;
18162;SDS011;9206;50.994;4.538;2023-02-17T03:12:24;6.70;;;6.20;;
18162;SDS011;9206;50.994;4.538;2023-02-17T03:15:17;7.83;;;7.03;;
18162;SDS011;9206;50.994;4.538;2023-02-17T03:18:11;8.20;;;7.40;;
18162;SDS011;9206;50.994;4.538;2023-02-17T03:21:07;8.93;;;8.20;;
18162;SDS011;9206;50.994;4.538;2023-02-17T03:26:55;13.20;;;8.50;;
18162;SDS011;9206;50.994;4.538;2023-02-17T03:29:48;10.03;;;8.83;;
18162;SDS011;9206;50.994;4.538;2023-02-17T03:35:27;12.43;;;9.60;;
18162;SDS011;9206;50.994;4.538;2023-02-17T03:38:16;12.03;;;9.00;;
18162;SDS011;9206;50.994;4.538;2023-02-17T03:41:06;8.70;;;7.83;;
18162;SDS011;9206;50.994;4.538;2023-02-17T03:44:01;9.43;;;8.57;;
18162;SDS011;9206;50.994;4.538;2023-02-17T03:46:48;9.00;;;8.30;;
18162;SDS011;9206;50.994;4.538;2023-02-17T03:52:36;8.63;;;7.67;;
18162;SDS011;9206;50.994;4.538;2023-02-17T03:55:24;7.83;;;7.23;;
18162;SDS011;9206;50.994;4.538;2023-02-17T03:58:12;8.83;;;7.90;;
18162;SDS011;9206;50.994;4.538;2023-02-17T04:01:07;8.20;;;7.40;;
18162;SDS011;9206;50.994;4.538;2023-02-17T04:03:57;11.93;;;7.30;;
18162;SDS011;9206;50.994;4.538;2023-02-17T04:06:45;8.47;;;7.73;;
18162;SDS011;9206;50.994;4.538;2023-02-17T04:09:32;8.87;;;7.40;;
18162;SDS011;9206;50.994;4.538;2023-02-17T04:12:21;10.60;;;8.37;;
18162;SDS011;9206;50.994;4.538;2023-02-17T04:15:09;8.63;;;7.87;;
18162;SDS011;9206;50.994;4.538;2023-02-17T04:21:00;14.00;;;8.47;;
18162;SDS011;9206;50.994;4.538;2023-02-17T04:23:50;9.67;;;8.70;;
18162;SDS011;9206;50.994;4.538;2023-02-17T04:26:40;10.83;;;7.87;;
18162;SDS011;9206;50.994;4.538;2023-02-17T04:29:28;8.47;;;7.63;;
18162;SDS011;9206;50.994;4.538;2023-02-17T04:32:16;10.03;;;8.13;;
18162;SDS011;9206;50.994;4.538;2023-02-17T04:35:06;8.00;;;7.30;;
18162;SDS011;9206;50.994;4.538;2023-02-17T04:37:56;10.63;;;7.97;;
18162;SDS011;9206;50.994;4.538;2023-02-17T04:40:44;9.93;;;7.77;;
18162;SDS011;9206;50.994;4.538;2023-02-17T04:43:40;8.47;;;7.70;;
18162;SDS011;9206;50.994;4.538;2023-02-17T04:46:28;8.00;;;7.23;;
18162;SDS011;9206;50.994;4.538;2023-02-17T04:49:15;8.10;;;7.30;;
18162;SDS011;9206;50.994;4.538;2023-02-17T04:52:09;7.47;;;6.83;;
18162;SDS011;9206;50.994;4.538;2023-02-17T04:54:58;7.37;;;6.87;;
18162;SDS011;9206;50.994;4.538;2023-02-17T04:57:46;15.43;;;7.43;;
18162;SDS011;9206;50.994;4.538;2023-02-17T05:00:33;9.80;;;6.63;;
18162;SDS011;9206;50.994;4.538;2023-02-17T05:03:21;9.83;;;6.90;;
18162;SDS011;9206;50.994;4.538;2023-02-17T05:06:10;8.43;;;7.20;;
18162;SDS011;9206;50.994;4.538;2023-02-17T05:08:59;9.13;;;6.93;;
18162;SDS011;9206;50.994;4.538;2023-02-17T05:11:53;7.27;;;6.67;;
18162;SDS011;9206;50.994;4.538;2023-02-17T05:14:42;6.97;;;6.37;;
18162;SDS011;9206;50.994;4.538;2023-02-17T05:17:32;7.50;;;6.70;;
18162;SDS011;9206;50.994;4.538;2023-02-17T05:20:21;11.30;;;7.10;;
18162;SDS011;9206;50.994;4.538;2023-02-17T05:23:11;7.77;;;6.93;;
18162;SDS011;9206;50.994;4.538;2023-02-17T05:25:58;6.97;;;6.37;;
18162;SDS011;9206;50.994;4.538;2023-02-17T05:28:47;7.40;;;6.43;;
18162;SDS011;9206;50.994;4.538;2023-02-17T05:31:40;6.90;;;6.30;;
18162;SDS011;9206;50.994;4.538;2023-02-17T05:37:34;6.50;;;6.03;;
18162;SDS011;9206;50.994;4.538;2023-02-17T05:40:21;8.90;;;6.73;;
18162;SDS011;9206;50.994;4.538;2023-02-17T05:43:12;7.83;;;6.97;;
18162;SDS011;9206;50.994;4.538;2023-02-17T05:46:02;7.50;;;6.77;;
18162;SDS011;9206;50.994;4.538;2023-02-17T05:48:51;7.47;;;6.73;;
18162;SDS011;9206;50.994;4.538;2023-02-17T05:57:19;9.53;;;7.77;;
18162;SDS011;9206;50.994;4.538;2023-02-17T06:00:08;11.20;;;7.20;;
18162;SDS011;9206;50.994;4.538;2023-02-17T06:02:57;9.33;;;7.10;;
18162;SDS011;9206;50.994;4.538;2023-02-17T06:05:47;7.87;;;6.80;;
18162;SDS011;9206;50.994;4.538;2023-02-17T06:08:37;7.70;;;6.80;;
18162;SDS011;9206;50.994;4.538;2023-02-17T06:11:27;7.60;;;6.87;;
18162;SDS011;9206;50.994;4.538;2023-02-17T06:14:15;7.40;;;6.70;;
18162;SDS011;9206;50.994;4.538;2023-02-17T06:17:02;8.57;;;6.17;;
18162;SDS011;9206;50.994;4.538;2023-02-17T06:19:52;7.63;;;6.47;;
18162;SDS011;9206;50.994;4.538;2023-02-17T06:22:40;9.83;;;6.37;;
18162;SDS011;9206;50.994;4.538;2023-02-17T06:28:18;8.17;;;7.37;;
18162;SDS011;9206;50.994;4.538;2023-02-17T06:31:18;7.87;;;6.73;;
18162;SDS011;9206;50.994;4.538;2023-02-17T06:34:18;6.23;;;5.63;;
18162;SDS011;9206;50.994;4.538;2023-02-17T06:37:28;8.70;;;5.90;;
18162;SDS011;9206;50.994;4.538;2023-02-17T06:40:22;6.63;;;5.63;;
18162;SDS011;9206;50.994;4.538;2023-02-17T06:43:11;6.87;;;6.30;;
18162;SDS011;9206;50.994;4.538;2023-02-17T06:46:02;6.43;;;5.93;;
18162;SDS011;9206;50.994;4.538;2023-02-17T06:48:52;6.63;;;5.87;;
18162;SDS011;9206;50.994;4.538;2023-02-17T06:51:39;6.67;;;6.07;;
18162;SDS011;9206;50.994;4.538;2023-02-17T06:54:34;6.13;;;5.60;;
18162;SDS011;9206;50.994;4.538;2023-02-17T06:57:21;12.33;;;6.23;;
18162;SDS011;9206;50.994;4.538;2023-02-17T07:00:10;7.47;;;6.70;;
18162;SDS011;9206;50.994;4.538;2023-02-17T07:05:50;6.07;;;5.50;;
18162;SDS011;9206;50.994;4.538;2023-02-17T07:08:43;6.00;;;5.40;;
18162;SDS011;9206;50.994;4.538;2023-02-17T07:11:32;8.60;;;6.60;;
18162;SDS011;9206;50.994;4.538;2023-02-17T07:14:22;9.03;;;6.47;;
18162;SDS011;9206;50.994;4.538;2023-02-17T07:17:12;7.30;;;6.47;;
18162;SDS011;9206;50.994;4.538;2023-02-17T07:19:59;10.10;;;6.50;;
18162;SDS011;9206;50.994;4.538;2023-02-17T07:25:37;6.83;;;6.33;;
18162;SDS011;9206;50.994;4.538;2023-02-17T07:28:28;7.20;;;6.50;;
18162;SDS011;9206;50.994;4.538;2023-02-17T07:31:16;7.57;;;6.83;;
18162;SDS011;9206;50.994;4.538;2023-02-17T07:34:06;7.47;;;6.13;;
18162;SDS011;9206;50.994;4.538;2023-02-17T07:36:57;8.83;;;6.30;;
18162;SDS011;9206;50.994;4.538;2023-02-17T07:39:48;8.83;;;6.53;;
18162;SDS011;9206;50.994;4.538;2023-02-17T07:42:44;7.47;;;6.87;;
18162;SDS011;9206;50.994;4.538;2023-02-17T07:45:34;6.73;;;6.13;;
18162;SDS011;9206;50.994;4.538;2023-02-17T07:48:21;6.47;;;5.87;;
18162;SDS011;9206;50.994;4.538;2023-02-17T07:54:07;8.97;;;6.97;;
18162;SDS011;9206;50.994;4.538;2023-02-17T07:56:55;7.40;;;6.63;;
18162;SDS011;9206;50.994;4.538;2023-02-17T08:02:36;7.53;;;6.97;;
18162;SDS011;9206;50.994;4.538;2023-02-17T08:05:24;8.00;;;7.20;;
18162;SDS011;9206;50.994;4.538;2023-02-17T08:08:14;9.03;;;7.60;;
18162;SDS011;9206;50.994;4.538;2023-02-17T08:11:21;7.67;;;6.97;;
18162;SDS011;9206;50.994;4.538;2023-02-17T08:14:29;7.73;;;7.13;;
18162;SDS011;9206;50.994;4.538;2023-02-17T08:17:18;7.93;;;7.23;;
18162;SDS011;9206;50.994;4.538;2023-02-17T08:20:08;8.10;;;6.83;;
18162;SDS011;9206;50.994;4.538;2023-02-17T08:22:58;9.33;;;7.13;;
18162;SDS011;9206;50.994;4.538;2023-02-17T08:25:49;39.10;;;8.77;;
18162;SDS011;9206;50.994;4.538;2023-02-17T08:28:37;7.87;;;7.20;;
18162;SDS011;9206;50.994;4.538;2023-02-17T08:31:25;7.33;;;6.63;;
18162;SDS011;9206;50.994;4.538;2023-02-17T08:34:16;8.33;;;6.53;;
18162;SDS011;9206;50.994;4.538;2023-02-17T08:37:13;6.97;;;6.40;;
18162;SDS011;9206;50.994;4.538;2023-02-17T08:40:02;8.67;;;6.80;;
18162;SDS011;9206;50.994;4.538;2023-02-17T08:42:50;7.17;;;6.57;;
18162;SDS011;9206;50.994;4.538;2023-02-17T08:45:41;5.97;;;5.47;;
18162;SDS011;9206;50.994;4.538;2023-02-17T08:48:34;6.87;;;6.27;;
18162;SDS011;9206;50.994;4.538;2023-02-17T08:51:28;6.20;;;5.70;;
18162;SDS011;9206;50.994;4.538;2023-02-17T08:54:17;6.13;;;5.57;;
18162;SDS011;9206;50.994;4.538;2023-02-17T08:57:10;5.97;;;5.43;;
18162;SDS011;9206;50.994;4.538;2023-02-17T08:59:58;4.90;;;4.60;;
18162;SDS011;9206;50.994;4.538;2023-02-17T09:02:52;4.83;;;4.43;;
18162;SDS011;9206;50.994;4.538;2023-02-17T09:05:39;4.43;;;4.23;;
18162;SDS011;9206;50.994;4.538;2023-02-17T09:08:29;4.53;;;4.23;;
18162;SDS011;9206;50.994;4.538;2023-02-17T09:11:24;6.07;;;4.63;;
18162;SDS011;9206;50.994;4.538;2023-02-17T09:14:15;5.00;;;4.40;;
18162;SDS011;9206;50.994;4.538;2023-02-17T09:17:02;4.60;;;4.30;;
18162;SDS011;9206;50.994;4.538;2023-02-17T09:19:50;4.27;;;4.07;;
18162;SDS011;9206;50.994;4.538;2023-02-17T09:22:45;4.50;;;4.10;;
18162;SDS011;9206;50.994;4.538;2023-02-17T09:25:32;4.27;;;4.07;;
18162;SDS011;9206;50.994;4.538;2023-02-17T09:28:27;4.37;;;4.10;;
18162;SDS011;9206;50.994;4.538;2023-02-17T09:31:15;4.23;;;3.93;;
18162;SDS011;9206;50.994;4.538;2023-02-17T09:34:14;3.70;;;3.50;;
18162;SDS011;9206;50.994;4.538;2023-02-17T09:37:02;7.47;;;3.80;;
18162;SDS011;9206;50.994;4.538;2023-02-17T09:40:01;4.93;;;3.30;;
18162;SDS011;9206;50.994;4.538;2023-02-17T09:42:51;4.27;;;3.93;;
18162;SDS011;9206;50.994;4.538;2023-02-17T09:45:43;3.53;;;3.33;;
18162;SDS011;9206;50.994;4.538;2023-02-17T09:48:37;3.80;;;3.60;;
18162;SDS011;9206;50.994;4.538;2023-02-17T09:51:29;4.00;;;3.80;;
18162;SDS011;9206;50.994;4.538;2023-02-17T09:54:23;5.57;;;4.33;;
18162;SDS011;9206;50.994;4.538;2023-02-17T09:57:16;4.33;;;4.03;;
18162;SDS011;9206;50.994;4.538;2023-02-17T10:00:08;4.00;;;3.70;;
18162;SDS011;9206;50.994;4.538;2023-02-17T10:03:12;3.87;;;3.50;;
18162;SDS011;9206;50.994;4.538;2023-02-17T10:06:11;3.27;;;3.07;;
18162;SDS011;9206;50.994;4.538;2023-02-17T10:09:09;3.23;;;2.60;;
18162;SDS011;9206;50.994;4.538;2023-02-17T10:12:02;4.73;;;3.10;;
18162;SDS011;9206;50.994;4.538;2023-02-17T10:14:55;3.57;;;2.80;;
18162;SDS011;9206;50.994;4.538;2023-02-17T10:17:49;2.40;;;2.30;;
18162;SDS011;9206;50.994;4.538;2023-02-17T10:20:43;2.50;;;2.20;;
18162;SDS011;9206;50.994;4.538;2023-02-17T10:23:37;3.63;;;2.13;;
18162;SDS011;9206;50.994;4.538;2023-02-17T10:26:29;4.40;;;2.33;;
18162;SDS011;9206;50.994;4.538;2023-02-17T10:29:33;4.77;;;2.40;;
18162;SDS011;9206;50.994;4.538;2023-02-17T10:32:33;2.40;;;2.30;;
18162;SDS011;9206;50.994;4.538;2023-02-17T10:35:39;3.67;;;2.17;;
18162;SDS011;9206;50.994;4.538;2023-02-17T10:41:33;2.60;;;1.90;;
18162;SDS011;9206;50.994;4.538;2023-02-17T10:44:27;1.70;;;1.60;;
18162;SDS011;9206;50.994;4.538;2023-02-17T10:47:14;3.30;;;1.40;;
18162;SDS011;9206;50.994;4.538;2023-02-17T10:50:04;2.20;;;0.90;;
18162;SDS011;9206;50.994;4.538;2023-02-17T10:53:01;2.97;;;1.10;;
18162;SDS011;9206;50.994;4.538;2023-02-17T10:55:58;1.23;;;0.80;;
18162;SDS011;9206;50.994;4.538;2023-02-17T10:58:52;1.70;;;0.90;;
18162;SDS011;9206;50.994;4.538;2023-02-17T11:04:42;0.80;;;0.80;;
18162;SDS011;9206;50.994;4.538;2023-02-17T11:07:37;9.10;;;1.80;;
18162;SDS011;9206;50.994;4.538;2023-02-17T11:10:36;1.67;;;0.67;;
18162;SDS011;9206;50.994;4.538;2023-02-17T11:13:35;1.83;;;0.80;;
18162;SDS011;9206;50.994;4.538;2023-02-17T11:16:34;1.53;;;0.70;;
18162;SDS011;9206;50.994;4.538;2023-02-17T11:19:27;2.60;;;1.30;;
18162;SDS011;9206;50.994;4.538;2023-02-17T11:25:33;2.10;;;0.97;;
18162;SDS011;9206;50.994;4.538;2023-02-17T11:28:25;1.50;;;0.90;;
18162;SDS011;9206;50.994;4.538;2023-02-17T11:31:32;1.80;;;0.98;;
18162;SDS011;9206;50.994;4.538;2023-02-17T11:34:22;4.55;;;1.13;;
18162;SDS011;9206;50.994;4.538;2023-02-17T11:37:18;0.85;;;0.85;;
18162;SDS011;9206;50.994;4.538;2023-02-17T11:40:21;0.90;;;0.82;;
18162;SDS011;9206;50.994;4.538;2023-02-17T11:46:16;4.00;;;0.90;;
18162;SDS011;9206;50.994;4.538;2023-02-17T11:52:34;5.03;;;1.40;;
18162;SDS011;9206;50.994;4.538;2023-02-17T11:55:34;1.77;;;0.83;;
18162;SDS011;9206;50.994;4.538;2023-02-17T11:58:41;0.80;;;0.80;;
18162;SDS011;9206;50.994;4.538;2023-02-17T12:01:43;1.20;;;1.10;;
18162;SDS011;9206;50.994;4.538;2023-02-17T12:04:50;2.13;;;1.33;;
18162;SDS011;9206;50.994;4.538;2023-02-17T12:08:04;1.13;;;0.90;;
18162;SDS011;9206;50.994;4.538;2023-02-17T12:11:07;2.13;;;0.90;;
18162;SDS011;9206;50.994;4.538;2023-02-17T12:14:06;1.20;;;1.03;;
18162;SDS011;9206;50.994;4.538;2023-02-17T12:17:10;1.80;;;0.90;;
18162;SDS011;9206;50.994;4.538;2023-02-17T12:20:04;1.23;;;0.90;;
18162;SDS011;9206;50.994;4.538;2023-02-17T12:23:11;2.50;;;0.93;;
18162;SDS011;9206;50.994;4.538;2023-02-17T12:26:18;0.80;;;0.80;;
18162;SDS011;9206;50.994;4.538;2023-02-17T12:29:20;1.17;;;1.00;;
18162;SDS011;9206;50.994;4.538;2023-02-17T12:32:19;4.27;;;1.10;;
18162;SDS011;9206;50.994;4.538;2023-02-17T12:35:20;0.87;;;0.87;;
18162;SDS011;9206;50.994;4.538;2023-02-17T12:38:14;2.67;;;0.80;;
18162;SDS011;9206;50.994;4.538;2023-02-17T12:41:05;0.83;;;0.80;;
18162;SDS011;9206;50.994;4.538;2023-02-17T12:44:00;1.10;;;1.00;;
18162;SDS011;9206;50.994;4.538;2023-02-17T12:46:56;4.87;;;1.00;;
18162;SDS011;9206;50.994;4.538;2023-02-17T12:49:54;0.93;;;0.80;;
18162;SDS011;9206;50.994;4.538;2023-02-17T12:52:53;2.80;;;0.90;;
18162;SDS011;9206;50.994;4.538;2023-02-17T12:55:46;2.87;;;1.07;;
18162;SDS011;9206;50.994;4.538;2023-02-17T12:58:43;1.47;;;0.90;;
18162;SDS011;9206;50.994;4.538;2023-02-17T13:01:40;1.33;;;0.80;;
18162;SDS011;9206;50.994;4.538;2023-02-17T13:04:42;0.90;;;0.90;;
18162;SDS011;9206;50.994;4.538;2023-02-17T13:07:42;0.80;;;0.80;;
18162;SDS011;9206;50.994;4.538;2023-02-17T13:10:38;2.77;;;0.90;;
18162;SDS011;9206;50.994;4.538;2023-02-17T13:13:30;3.90;;;0.97;;
18162;SDS011;9206;50.994;4.538;2023-02-17T13:16:19;1.17;;;1.07;;
18162;SDS011;9206;50.994;4.538;2023-02-17T13:19:11;2.20;;;1.00;;
18162;SDS011;9206;50.994;4.538;2023-02-17T13:22:04;2.00;;;0.80;;
18162;SDS011;9206;50.994;4.538;2023-02-17T13:25:05;2.53;;;0.87;;
18162;SDS011;9206;50.994;4.538;2023-02-17T13:31:28;7.17;;;1.33;;
18162;SDS011;9206;50.994;4.538;2023-02-17T13:34:29;2.83;;;0.93;;
18162;SDS011;9206;50.994;4.538;2023-02-17T13:37:24;2.00;;;1.10;;
18162;SDS011;9206;50.994;4.538;2023-02-17T13:40:35;2.47;;;0.80;;
18162;SDS011;9206;50.994;4.538;2023-02-17T13:43:27;4.03;;;0.73;;
18162;SDS011;9206;50.994;4.538;2023-02-17T13:46:18;0.70;;;0.70;;
18162;SDS011;9206;50.994;4.538;2023-02-17T13:52:14;1.90;;;0.90;;
18162;SDS011;9206;50.994;4.538;2023-02-17T13:55:18;0.80;;;0.80;;
18162;SDS011;9206;50.994;4.538;2023-02-17T13:58:09;5.20;;;1.47;;
18162;SDS011;9206;50.994;4.538;2023-02-17T14:00:57;2.90;;;1.40;;
18162;SDS011;9206;50.994;4.538;2023-02-17T14:03:52;3.10;;;1.03;;
18162;SDS011;9206;50.994;4.538;2023-02-17T14:06:50;2.10;;;0.80;;
18162;SDS011;9206;50.994;4.538;2023-02-17T14:09:42;1.60;;;0.60;;
18162;SDS011;9206;50.994;4.538;2023-02-17T14:18:31;1.60;;;0.80;;
18162;SDS011;9206;50.994;4.538;2023-02-17T14:21:24;0.70;;;0.70;;
18162;SDS011;9206;50.994;4.538;2023-02-17T14:24:24;0.80;;;0.80;;
18162;SDS011;9206;50.994;4.538;2023-02-17T14:27:19;0.70;;;0.70;;
18162;SDS011;9206;50.994;4.538;2023-02-17T14:30:26;1.27;;;0.77;;
18162;SDS011;9206;50.994;4.538;2023-02-17T14:33:20;0.80;;;0.80;;
18162;SDS011;9206;50.994;4.538;2023-02-17T14:36:24;0.70;;;0.70;;
18162;SDS011;9206;50.994;4.538;2023-02-17T14:39:18;1.23;;;0.90;;
18162;SDS011;9206;50.994;4.538;2023-02-17T14:42:07;0.87;;;0.80;;
18162;SDS011;9206;50.994;4.538;2023-02-17T14:45:08;1.10;;;1.10;;
18162;SDS011;9206;50.994;4.538;2023-02-17T14:48:04;1.10;;;1.00;;
18162;SDS011;9206;50.994;4.538;2023-02-17T14:50:57;3.27;;;1.00;;
18162;SDS011;9206;50.994;4.538;2023-02-17T14:53:53;0.90;;;0.90;;
18162;SDS011;9206;50.994;4.538;2023-02-17T14:56:42;1.07;;;1.00;;
18162;SDS011;9206;50.994;4.538;2023-02-17T14:59:35;2.37;;;1.30;;
18162;SDS011;9206;50.994;4.538;2023-02-17T15:02:26;1.77;;;1.20;;
18162;SDS011;9206;50.994;4.538;2023-02-17T15:05:16;1.10;;;1.10;;
18162;SDS011;9206;50.994;4.538;2023-02-17T15:08:04;2.23;;;1.10;;
18162;SDS011;9206;50.994;4.538;2023-02-17T15:10:55;0.87;;;0.83;;
18162;SDS011;9206;50.994;4.538;2023-02-17T15:13:44;1.60;;;1.00;;
18162;SDS011;9206;50.994;4.538;2023-02-17T15:16:35;1.00;;;1.00;;
18162;SDS011;9206;50.994;4.538;2023-02-17T15:19:23;3.73;;;1.13;;
18162;SDS011;9206;50.994;4.538;2023-02-17T15:22:17;2.07;;;1.00;;
18162;SDS011;9206;50.994;4.538;2023-02-17T15:25:10;4.93;;;1.37;;
18162;SDS011;9206;50.994;4.538;2023-02-17T15:28:01;1.40;;;1.30;;
18162;SDS011;9206;50.994;4.538;2023-02-17T15:30:50;1.40;;;1.30;;
18162;SDS011;9206;50.994;4.538;2023-02-17T15:33:41;3.10;;;1.20;;
18162;SDS011;9206;50.994;4.538;2023-02-17T15:36:36;1.27;;;1.27;;
18162;SDS011;9206;50.994;4.538;2023-02-17T15:39:28;1.97;;;1.73;;
18162;SDS011;9206;50.994;4.538;2023-02-17T15:42:17;1.40;;;1.30;;
18162;SDS011;9206;50.994;4.538;2023-02-17T15:45:12;1.80;;;1.70;;
18162;SDS011;9206;50.994;4.538;2023-02-17T15:48:04;1.67;;;1.57;;
18162;SDS011;9206;50.994;4.538;2023-02-17T15:50:59;2.10;;;1.63;;
18162;SDS011;9206;50.994;4.538;2023-02-17T15:53:52;1.73;;;1.70;;
18162;SDS011;9206;50.994;4.538;2023-02-17T15:56:44;2.43;;;2.23;;
18162;SDS011;9206;50.994;4.538;2023-02-17T15:59:40;2.93;;;2.03;;
18162;SDS011;9206;50.994;4.538;2023-02-17T16:02:30;2.23;;;2.13;;
18162;SDS011;9206;50.994;4.538;2023-02-17T16:05:24;4.37;;;1.93;;
18162;SDS011;9206;50.994;4.538;2023-02-17T16:08:14;2.57;;;2.47;;
18162;SDS011;9206;50.994;4.538;2023-02-17T16:11:08;2.80;;;2.60;;
18162;SDS011;9206;50.994;4.538;2023-02-17T16:14:00;4.43;;;2.90;;
18162;SDS011;9206;50.994;4.538;2023-02-17T16:16:50;2.97;;;2.53;;
18162;SDS011;9206;50.994;4.538;2023-02-17T16:19:37;2.73;;;2.53;;
18162;SDS011;9206;50.994;4.538;2023-02-17T16:22:26;2.87;;;2.67;;
18162;SDS011;9206;50.994;4.538;2023-02-17T16:25:25;4.53;;;2.30;;
18162;SDS011;9206;50.994;4.538;2023-02-17T16:28:27;3.93;;;2.80;;
18162;SDS011;9206;50.994;4.538;2023-02-17T16:31:25;5.73;;;2.87;;
18162;SDS011;9206;50.994;4.538;2023-02-17T16:34:16;3.00;;;2.80;;
18162;SDS011;9206;50.994;4.538;2023-02-17T16:37:10;4.30;;;3.47;;
18162;SDS011;9206;50.994;4.538;2023-02-17T16:40:02;3.93;;;2.90;;
18162;SDS011;9206;50.994;4.538;2023-02-17T16:43:00;4.67;;;2.90;;
18162;SDS011;9206;50.994;4.538;2023-02-17T16:45:51;3.30;;;2.80;;
18162;SDS011;9206;50.994;4.538;2023-02-17T16:48:47;4.03;;;3.10;;
18162;SDS011;9206;50.994;4.538;2023-02-17T16:51:35;3.07;;;2.77;;
18162;SDS011;9206;50.994;4.538;2023-02-17T16:54:25;5.70;;;2.97;;
18162;SDS011;9206;50.994;4.538;2023-02-17T16:57:19;3.43;;;2.90;;
18162;SDS011;9206;50.994;4.538;2023-02-17T17:02:58;3.67;;;3.30;;
18162;SDS011;9206;50.994;4.538;2023-02-17T17:08:39;5.27;;;2.93;;
18162;SDS011;9206;50.994;4.538;2023-02-17T17:11:32;3.03;;;2.83;;
18162;SDS011;9206;50.994;4.538;2023-02-17T17:14:21;3.47;;;3.17;;
18162;SDS011;9206;50.994;4.538;2023-02-17T17:17:11;3.97;;;3.60;;
18162;SDS011;9206;50.994;4.538;2023-02-17T17:19:58;4.03;;;3.13;;
18162;SDS011;9206;50.994;4.538;2023-02-17T17:22:48;6.13;;;3.60;;
18162;SDS011;9206;50.994;4.538;2023-02-17T17:25:42;3.40;;;3.10;;
18162;SDS011;9206;50.994;4.538;2023-02-17T17:28:34;3.40;;;3.10;;
18162;SDS011;9206;50.994;4.538;2023-02-17T17:31:27;5.87;;;3.17;;
18162;SDS011;9206;50.994;4.538;2023-02-17T17:34:17;4.93;;;3.07;;
18162;SDS011;9206;50.994;4.538;2023-02-17T17:37:05;4.13;;;3.00;;
18162;SDS011;9206;50.994;4.538;2023-02-17T17:39:59;3.93;;;3.10;;
18162;SDS011;9206;50.994;4.538;2023-02-17T17:42:53;3.43;;;3.00;;
18162;SDS011;9206;50.994;4.538;2023-02-17T17:45:40;3.60;;;3.40;;
18162;SDS011;9206;50.994;4.538;2023-02-17T17:48:28;5.07;;;3.53;;
18162;SDS011;9206;50.994;4.538;2023-02-17T17:51:16;3.50;;;3.23;;
18162;SDS011;9206;50.994;4.538;2023-02-17T17:54:07;3.90;;;3.50;;
18162;SDS011;9206;50.994;4.538;2023-02-17T17:56:57;4.00;;;3.17;;
18162;SDS011;9206;50.994;4.538;2023-02-17T17:59:50;3.80;;;3.50;;
18162;SDS011;9206;50.994;4.538;2023-02-17T18:02:43;4.03;;;3.63;;
18162;SDS011;9206;50.994;4.538;2023-02-17T18:05:33;4.93;;;3.63;;
18162;SDS011;9206;50.994;4.538;2023-02-17T18:08:27;4.30;;;3.80;;
18162;SDS011;9206;50.994;4.538;2023-02-17T18:11:20;5.97;;;3.77;;
18162;SDS011;9206;50.994;4.538;2023-02-17T18:14:14;4.23;;;4.03;;
18162;SDS011;9206;50.994;4.538;2023-02-17T18:17:08;4.30;;;4.00;;
18162;SDS011;9206;50.994;4.538;2023-02-17T18:19:57;4.40;;;4.00;;
18162;SDS011;9206;50.994;4.538;2023-02-17T18:22:46;4.50;;;4.10;;
18162;SDS011;9206;50.994;4.538;2023-02-17T18:25:34;5.37;;;4.83;;
18162;SDS011;9206;50.994;4.538;2023-02-17T18:31:15;4.47;;;4.07;;
18162;SDS011;9206;50.994;4.538;2023-02-17T18:34:03;4.67;;;4.27;;
18162;SDS011;9206;50.994;4.538;2023-02-17T18:36:53;4.40;;;4.10;;
18162;SDS011;9206;50.994;4.538;2023-02-17T18:39:40;4.73;;;4.43;;
18162;SDS011;9206;50.994;4.538;2023-02-17T18:42:27;4.60;;;4.30;;
18162;SDS011;9206;50.994;4.538;2023-02-17T18:51:04;4.37;;;4.17;;
18162;SDS011;9206;50.994;4.538;2023-02-17T18:59:35;4.57;;;4.27;;
18162;SDS011;9206;50.994;4.538;2023-02-17T19:02:24;5.10;;;4.67;;
18162;SDS011;9206;50.994;4.538;2023-02-17T19:05:15;4.90;;;4.60;;
18162;SDS011;9206;50.994;4.538;2023-02-17T19:10:53;5.20;;;4.90;;
18162;SDS011;9206;50.994;4.538;2023-02-17T19:13:42;5.23;;;4.83;;
18162;SDS011;9206;50.994;4.538;2023-02-17T19:16:31;5.57;;;5.07;;
18162;SDS011;9206;50.994;4.538;2023-02-17T19:19:25;5.37;;;4.83;;
18162;SDS011;9206;50.994;4.538;2023-02-17T19:22:15;5.80;;;5.40;;
18162;SDS011;9206;50.994;4.538;2023-02-17T19:25:05;6.07;;;5.30;;